createdAt,value
2022-07-28T00:01:16.495Z,13.06
2022-07-28T00:03:51.889Z,13.05
2022-07-28T00:06:20.051Z,13.05
2022-07-28T00:08:48.551Z,13.04
2022-07-28T00:11:18.498Z,13.02
2022-07-28T00:13:46.650Z,13.03
2022-07-28T00:16:14.961Z,13.02
2022-07-28T00:18:43.119Z,13.02
2022-07-28T00:21:11.310Z,13.01
2022-07-28T00:23:39.922Z,13.01
2022-07-28T00:26:08.757Z,13.01
2022-07-28T00:28:38.398Z,13.01
2022-07-28T00:31:08.025Z,13.01
2022-07-28T00:33:44.274Z,12.99
2022-07-28T00:36:30.869Z,12.94
2022-07-28T00:38:59.188Z,12.90
2022-07-28T00:41:32.732Z,12.87
2022-07-28T00:44:02.275Z,12.86
2022-07-28T00:46:30.628Z,12.84
2022-07-28T00:48:58.808Z,12.82
2022-07-28T00:51:28.064Z,12.78
2022-07-28T00:53:58.347Z,12.73
2022-07-28T00:56:26.442Z,12.67
2022-07-28T00:58:54.884Z,12.61
2022-07-28T01:01:24.583Z,12.58
2022-07-28T01:03:55.228Z,12.56
2022-07-28T01:06:39.933Z,12.53
2022-07-28T01:09:36.943Z,12.52
2022-07-28T01:12:12.298Z,12.50
2022-07-28T01:14:41.682Z,12.49
2022-07-28T01:17:15.335Z,12.47
2022-07-28T01:19:48.196Z,12.44
2022-07-28T01:22:18.465Z,12.42
2022-07-28T01:24:52.536Z,12.41
2022-07-28T01:27:35.582Z,12.41
2022-07-28T01:30:06.337Z,12.40
2022-07-28T01:32:38.062Z,12.38
2022-07-28T01:35:10.264Z,12.34
2022-07-28T01:37:42.618Z,12.32
2022-07-28T01:40:12.970Z,12.27
2022-07-28T01:42:45.038Z,12.23
2022-07-28T01:45:14.140Z,12.20
2022-07-28T01:47:44.626Z,12.18
2022-07-28T01:50:13.433Z,12.18
2022-07-28T01:52:43.093Z,12.17
2022-07-28T01:55:14.242Z,12.15
2022-07-28T01:57:42.830Z,12.13
2022-07-28T02:00:12.547Z,12.10
2022-07-28T02:02:41.875Z,12.07
2022-07-28T02:05:12.979Z,12.06
2022-07-28T02:07:44.266Z,12.04
2022-07-28T02:10:13.294Z,11.98
2022-07-28T02:12:42.419Z,11.96
2022-07-28T02:15:11.415Z,11.95
2022-07-28T02:17:42.542Z,11.93
2022-07-28T02:20:13.995Z,11.92
2022-07-28T02:22:43.072Z,11.90
2022-07-28T02:25:11.978Z,11.90
2022-07-28T02:27:41.033Z,11.85
2022-07-28T02:30:11.037Z,11.83
2022-07-28T02:32:42.200Z,11.81
2022-07-28T02:35:17.999Z,11.80
2022-07-28T02:37:53.511Z,11.78
2022-07-28T02:40:23.202Z,11.78
2022-07-28T02:42:52.494Z,11.77
2022-07-28T02:45:22.797Z,11.73
2022-07-28T02:47:53.138Z,11.75
2022-07-28T02:50:24.928Z,11.72
2022-07-28T02:52:55.177Z,11.70
2022-07-28T02:55:23.698Z,11.68
2022-07-28T02:57:56.479Z,11.65
2022-07-28T03:00:25.495Z,11.58
2022-07-28T03:02:54.788Z,11.57
2022-07-28T03:05:24.459Z,11.56
2022-07-28T03:07:53.943Z,11.53
2022-07-28T03:10:32.969Z,11.51
2022-07-28T03:13:01.733Z,11.50
2022-07-28T03:15:31.121Z,11.44
2022-07-28T03:17:59.649Z,11.45
2022-07-28T03:20:30.828Z,11.43
2022-07-28T03:22:59.550Z,11.43
2022-07-28T03:25:29.921Z,11.41
2022-07-28T03:27:59.504Z,11.40
2022-07-28T03:30:29.068Z,11.40
2022-07-28T03:32:59.271Z,11.42
2022-07-28T03:35:28.145Z,11.43
2022-07-28T03:38:00.704Z,11.41
2022-07-28T03:40:30.179Z,11.41
2022-07-28T03:42:59.061Z,11.40
2022-07-28T03:45:27.890Z,11.36
2022-07-28T03:47:58.057Z,11.33
2022-07-28T03:50:27.159Z,11.29
2022-07-28T03:53:03.089Z,11.26
2022-07-28T03:55:31.545Z,11.22
2022-07-28T03:57:59.669Z,11.23
2022-07-28T04:00:27.907Z,11.25
2022-07-28T04:02:56.098Z,11.23
2022-07-28T04:05:24.283Z,11.26
2022-07-28T04:07:52.442Z,11.24
2022-07-28T04:10:22.082Z,11.24
2022-07-28T04:12:51.104Z,11.23
2022-07-28T04:15:20.037Z,11.23
2022-07-28T04:17:49.253Z,11.23
2022-07-28T04:20:17.828Z,11.23
2022-07-28T04:22:46.447Z,11.22
2022-07-28T04:25:15.602Z,11.21
2022-07-28T04:27:45.804Z,11.18
2022-07-28T04:30:17.297Z,11.15
2022-07-28T04:32:45.867Z,11.10
2022-07-28T04:35:17.452Z,11.09
2022-07-28T04:37:46.452Z,11.03
2022-07-28T04:40:17.496Z,11.00
2022-07-28T04:42:47.389Z,10.95
2022-07-28T04:45:15.617Z,10.91
2022-07-28T04:47:44.017Z,10.87
2022-07-28T04:50:15.321Z,10.81
2022-07-28T04:52:43.623Z,10.78
2022-07-28T04:55:12.016Z,10.76
2022-07-28T04:57:40.275Z,10.75
2022-07-28T05:00:13.566Z,10.75
2022-07-28T05:02:42.571Z,10.74
2022-07-28T05:05:11.167Z,10.74
2022-07-28T05:07:39.553Z,10.74
2022-07-28T05:10:08.517Z,10.76
2022-07-28T05:12:36.646Z,10.79
2022-07-28T05:15:06.846Z,10.94
2022-07-28T05:17:37.222Z,11.12
2022-07-28T05:20:06.042Z,11.40
2022-07-28T05:22:42.479Z,11.71
2022-07-28T05:25:14.604Z,12.05
2022-07-28T05:27:42.965Z,12.46
2022-07-28T05:30:11.643Z,12.90
2022-07-28T05:32:45.320Z,13.34
2022-07-28T05:35:13.612Z,13.80
2022-07-28T05:37:41.781Z,14.27
2022-07-28T05:40:11.009Z,14.71
2022-07-28T05:42:40.166Z,15.19
2022-07-28T05:45:14.987Z,15.67
2022-07-28T05:47:47.409Z,16.13
2022-07-28T05:50:15.996Z,16.54
2022-07-28T05:52:44.189Z,16.94
2022-07-28T05:55:12.316Z,17.34
2022-07-28T05:57:41.021Z,17.72
2022-07-28T06:00:10.402Z,18.00
2022-07-28T06:02:41.603Z,18.26
2022-07-28T06:05:12.417Z,18.54
2022-07-28T06:07:42.788Z,18.83
2022-07-28T06:10:13.086Z,19.07
2022-07-28T06:12:42.161Z,19.47
2022-07-28T06:15:13.651Z,19.83
2022-07-28T06:17:42.328Z,20.23
2022-07-28T06:20:13.160Z,20.58
2022-07-28T06:22:44.860Z,20.96
2022-07-28T06:25:14.048Z,21.35
2022-07-28T06:27:42.358Z,21.69
2022-07-28T06:30:10.872Z,21.96
2022-07-28T06:32:39.232Z,22.20
2022-07-28T06:35:26.423Z,22.50
2022-07-28T06:37:54.949Z,22.59
2022-07-28T06:40:23.330Z,22.59
2022-07-28T06:42:51.929Z,22.81
2022-07-28T06:45:21.826Z,23.11
2022-07-28T06:47:50.524Z,23.35
2022-07-28T06:50:24.888Z,23.70
2022-07-28T06:52:56.857Z,24.11
2022-07-28T06:55:54.351Z,24.70
2022-07-28T06:58:22.379Z,25.24
2022-07-28T07:00:50.611Z,25.74
2022-07-28T07:03:18.979Z,26.27
2022-07-28T07:05:49.093Z,26.69
2022-07-28T07:08:30.296Z,26.82
2022-07-28T07:10:58.520Z,27.12
2022-07-28T07:13:26.993Z,26.82
2022-07-28T07:15:55.206Z,26.48
2022-07-28T07:18:23.517Z,26.95
2022-07-28T07:20:51.705Z,26.75
2022-07-28T07:23:19.767Z,27.10
2022-07-28T07:25:49.319Z,27.14
2022-07-28T07:28:17.591Z,27.15
2022-07-28T07:30:45.822Z,27.26
2022-07-28T07:33:14.045Z,27.08
2022-07-28T07:35:42.234Z,27.31
2022-07-28T07:38:10.349Z,27.12
2022-07-28T07:40:38.509Z,27.79
2022-07-28T07:43:08.735Z,28.27
2022-07-28T07:45:38.816Z,28.49
2022-07-28T07:48:07.424Z,28.71
2022-07-28T07:50:35.736Z,28.76
2022-07-28T07:53:04.173Z,29.05
2022-07-28T07:55:34.446Z,29.48
2022-07-28T07:58:06.723Z,29.58
2022-07-28T08:00:36.485Z,30.00
2022-07-28T08:03:04.614Z,30.01
2022-07-28T08:05:42.611Z,30.40
2022-07-28T08:08:10.972Z,30.54
2022-07-28T08:10:39.751Z,30.93
2022-07-28T08:13:08.346Z,31.10
2022-07-28T08:15:37.938Z,30.93
2022-07-28T08:18:06.046Z,31.07
2022-07-28T08:20:34.497Z,31.61
2022-07-28T08:23:02.941Z,32.05
2022-07-28T08:25:31.958Z,32.26
2022-07-28T08:28:00.154Z,32.64
2022-07-28T08:30:50.180Z,32.64
2022-07-28T08:33:22.001Z,32.78
2022-07-28T08:35:50.676Z,32.60
2022-07-28T08:38:20.165Z,33.29
2022-07-28T08:40:50.530Z,33.69
2022-07-28T08:43:25.122Z,33.79
2022-07-28T08:45:58.496Z,34.16
2022-07-28T08:48:28.559Z,34.31
2022-07-28T08:50:57.722Z,34.06
2022-07-28T08:53:26.048Z,33.04
2022-07-28T08:55:54.519Z,32.62
2022-07-28T08:58:23.672Z,32.26
2022-07-28T09:00:51.930Z,31.88
2022-07-28T09:03:21.754Z,31.73
2022-07-28T09:05:50.486Z,31.87
2022-07-28T09:08:19.047Z,31.62
2022-07-28T09:10:47.223Z,31.01
2022-07-28T09:13:15.654Z,31.05
2022-07-28T09:15:44.718Z,31.56
2022-07-28T09:18:12.913Z,31.99
2022-07-28T09:20:43.477Z,31.94
2022-07-28T09:23:41.826Z,31.67
2022-07-28T09:26:10.982Z,30.98
2022-07-28T09:28:50.327Z,30.57
2022-07-28T09:31:19.010Z,29.87
2022-07-28T09:33:57.662Z,29.66
2022-07-28T09:36:27.177Z,29.66
2022-07-28T09:38:56.765Z,29.64
2022-07-28T09:41:25.058Z,30.30
2022-07-28T09:43:55.791Z,30.60
2022-07-28T09:46:26.202Z,31.14
2022-07-28T09:48:58.733Z,32.15
2022-07-28T09:51:29.228Z,33.02
2022-07-28T09:54:07.844Z,32.98
2022-07-28T09:56:35.963Z,31.98
2022-07-28T09:59:04.775Z,31.80
2022-07-28T10:01:37.040Z,31.16
2022-07-28T10:04:05.610Z,30.42
2022-07-28T10:06:37.883Z,30.34
2022-07-28T10:09:08.043Z,30.19
2022-07-28T10:11:41.414Z,30.65
2022-07-28T10:14:09.989Z,31.37
2022-07-28T10:16:53.579Z,31.60
2022-07-28T10:19:21.898Z,32.29
2022-07-28T10:21:55.763Z,32.49
2022-07-28T10:24:24.154Z,32.58
2022-07-28T10:26:53.738Z,32.16
2022-07-28T10:29:22.602Z,32.87
2022-07-28T10:31:52.699Z,33.43
2022-07-28T10:34:24.622Z,33.52
2022-07-28T10:36:55.998Z,32.85
2022-07-28T10:39:25.195Z,33.05
2022-07-28T10:41:54.277Z,33.29
2022-07-28T10:44:24.097Z,33.48
2022-07-28T10:46:53.423Z,33.01
2022-07-28T10:49:22.407Z,32.84
2022-07-28T10:52:02.408Z,32.66
2022-07-28T10:54:36.138Z,32.62
2022-07-28T10:57:09.132Z,32.29
2022-07-28T10:59:45.775Z,31.70
2022-07-28T11:02:28.992Z,31.51
2022-07-28T11:05:02.032Z,31.24
2022-07-28T11:07:40.815Z,31.15
2022-07-28T11:10:18.212Z,31.26
2022-07-28T11:12:47.751Z,31.65
2022-07-28T11:15:27.072Z,31.71
2022-07-28T11:18:04.161Z,30.97
2022-07-28T11:20:50.874Z,30.96
2022-07-28T11:23:37.373Z,30.82
2022-07-28T11:26:24.280Z,30.58
2022-07-28T11:29:11.140Z,30.32
2022-07-28T11:32:13.199Z,30.16
2022-07-28T11:34:56.500Z,30.03
2022-07-28T11:37:26.058Z,29.86
2022-07-28T11:39:54.142Z,29.63
2022-07-28T11:42:25.924Z,29.46
2022-07-28T11:44:54.515Z,29.67
2022-07-28T11:47:23.171Z,29.63
2022-07-28T11:50:06.119Z,29.63
2022-07-28T11:52:35.961Z,29.77
2022-07-28T11:55:05.277Z,29.75
2022-07-28T11:57:41.459Z,29.92
2022-07-28T12:00:10.604Z,29.87
2022-07-28T12:02:41.999Z,29.62
2022-07-28T12:05:11.958Z,29.63
2022-07-28T12:07:42.991Z,29.64
2022-07-28T12:10:55.351Z,29.32
2022-07-28T12:13:28.922Z,29.14
2022-07-28T12:15:57.190Z,29.10
2022-07-28T12:18:25.550Z,28.95
2022-07-28T12:20:55.594Z,28.69
2022-07-28T12:23:44.097Z,28.64
2022-07-28T12:26:31.454Z,28.48
2022-07-28T12:29:00.290Z,28.02
2022-07-28T12:31:33.486Z,28.12
2022-07-28T12:34:03.115Z,27.98
2022-07-28T12:36:31.455Z,28.23
2022-07-28T12:39:07.269Z,28.54
2022-07-28T12:41:41.063Z,28.88
2022-07-28T12:44:09.126Z,29.08
2022-07-28T12:46:37.372Z,29.08
2022-07-28T12:49:05.494Z,29.28
2022-07-28T12:51:35.933Z,29.17
2022-07-28T12:54:07.115Z,29.02
2022-07-28T12:56:45.171Z,29.05
2022-07-28T12:59:13.888Z,29.09
2022-07-28T13:01:45.533Z,28.55
2022-07-28T13:04:15.265Z,28.56
2022-07-28T13:06:43.724Z,28.02
2022-07-28T13:09:22.411Z,27.98
2022-07-28T13:11:52.771Z,27.62
2022-07-28T13:14:36.418Z,27.50
2022-07-28T13:17:04.666Z,27.82
2022-07-28T13:19:32.821Z,27.51
2022-07-28T13:22:05.447Z,27.38
2022-07-28T13:24:47.025Z,27.58
2022-07-28T13:27:15.501Z,27.52
2022-07-28T13:29:43.584Z,27.51
2022-07-28T13:32:12.005Z,27.59
2022-07-28T13:34:40.234Z,27.51
2022-07-28T13:37:09.422Z,27.13
2022-07-28T13:39:37.682Z,27.02
2022-07-28T13:42:32.259Z,26.96
2022-07-28T13:45:05.403Z,26.72
2022-07-28T13:47:38.763Z,26.94
2022-07-28T13:50:09.831Z,27.12
2022-07-28T13:52:39.666Z,26.91
2022-07-28T13:55:09.479Z,26.72
2022-07-28T13:57:43.083Z,26.58
2022-07-28T14:00:12.052Z,26.28
2022-07-28T14:02:44.054Z,26.29
2022-07-28T14:05:13.108Z,26.29
2022-07-28T14:07:41.278Z,26.31
2022-07-28T14:10:11.245Z,26.24
2022-07-28T14:12:47.227Z,26.25
2022-07-28T14:15:15.668Z,26.41
2022-07-28T14:17:45.972Z,26.45
2022-07-28T14:20:15.016Z,26.37
2022-07-28T14:22:43.207Z,26.42
2022-07-28T14:25:11.803Z,26.46
2022-07-28T14:27:49.598Z,26.37
2022-07-28T14:30:18.221Z,26.33
2022-07-28T14:32:46.459Z,26.44
2022-07-28T14:35:14.693Z,26.65
2022-07-28T14:40:32.112Z,26.60
2022-07-28T14:43:03.727Z,26.50
2022-07-28T14:45:32.074Z,26.38
2022-07-28T14:48:20.084Z,26.33
2022-07-28T14:50:48.589Z,26.19
2022-07-28T14:53:17.362Z,26.25
2022-07-28T14:55:45.787Z,26.42
2022-07-28T14:58:15.269Z,26.37
2022-07-28T15:00:43.469Z,26.51
2022-07-28T15:03:11.913Z,26.61
2022-07-28T15:05:40.037Z,26.58
2022-07-28T15:08:10.174Z,26.44
2022-07-28T15:10:38.703Z,26.31
2022-07-28T15:13:06.950Z,25.72
2022-07-28T15:15:44.390Z,25.61
2022-07-28T15:18:12.973Z,25.30
2022-07-28T15:20:43.385Z,25.30
2022-07-28T15:23:11.817Z,25.04
2022-07-28T15:25:40.067Z,25.04
2022-07-28T15:28:08.421Z,24.88
2022-07-28T15:30:40.241Z,24.97
2022-07-28T15:33:19.706Z,24.90
2022-07-28T15:35:58.485Z,24.87
2022-07-28T15:38:28.193Z,24.82
2022-07-28T15:40:58.760Z,24.43
2022-07-28T15:43:27.027Z,24.30
2022-07-28T15:45:56.186Z,24.40
2022-07-28T15:48:26.278Z,24.47
2022-07-28T15:50:54.421Z,24.55
2022-07-28T15:53:22.645Z,24.55
2022-07-28T15:55:51.782Z,24.57
2022-07-28T15:58:20.408Z,24.41
2022-07-28T16:00:48.829Z,24.50
2022-07-28T16:03:17.285Z,24.27
2022-07-28T16:05:49.638Z,24.08
2022-07-28T16:08:18.243Z,23.87
2022-07-28T16:10:51.597Z,23.67
2022-07-28T16:13:32.173Z,23.42
2022-07-28T16:16:06.539Z,23.38
2022-07-28T16:18:38.050Z,23.29
2022-07-28T16:21:10.566Z,23.36
2022-07-28T16:23:43.903Z,23.33
2022-07-28T16:26:15.101Z,23.17
2022-07-28T16:28:43.530Z,23.10
2022-07-28T16:31:16.948Z,23.14
2022-07-28T16:33:46.337Z,23.04
2022-07-28T16:36:16.421Z,22.82
2022-07-28T16:38:45.018Z,22.72
2022-07-28T16:41:16.178Z,22.52
2022-07-28T16:43:44.896Z,22.58
2022-07-28T16:46:14.590Z,22.55
2022-07-28T16:48:43.236Z,22.64
2022-07-28T16:51:39.169Z,22.72
2022-07-28T16:54:08.092Z,22.58
2022-07-28T16:56:36.983Z,22.49
2022-07-28T16:59:06.082Z,22.48
2022-07-28T17:01:34.412Z,22.51
2022-07-28T17:04:03.399Z,22.51
2022-07-28T17:06:32.544Z,22.29
2022-07-28T17:09:02.456Z,22.36
2022-07-28T17:11:31.093Z,21.96
2022-07-28T17:13:59.597Z,21.80
2022-07-28T17:16:27.776Z,21.61
2022-07-28T17:18:56.106Z,21.50
2022-07-28T17:21:27.874Z,21.40
2022-07-28T17:23:56.544Z,21.39
2022-07-28T17:27:32.395Z,21.31
2022-07-28T17:29:17.393Z,21.32
2022-07-28T17:31:46.582Z,21.21
2022-07-28T17:34:15.376Z,21.16
2022-07-28T17:36:45.702Z,21.16
2022-07-28T17:39:14.643Z,21.07
2022-07-28T17:41:44.313Z,20.94
2022-07-28T17:44:13.075Z,20.85
2022-07-28T17:46:42.990Z,20.71
2022-07-28T17:49:11.702Z,20.64
2022-07-28T17:51:39.962Z,20.57
2022-07-28T17:54:08.450Z,20.39
2022-07-28T17:56:39.281Z,20.27
2022-07-28T17:59:09.516Z,20.19
2022-07-28T18:01:42.300Z,20.10
2022-07-28T18:04:14.133Z,19.98
2022-07-28T18:06:44.695Z,19.96
2022-07-28T18:09:12.770Z,19.82
2022-07-28T18:11:57.217Z,19.78
2022-07-28T18:14:29.460Z,19.74
2022-07-28T18:16:58.299Z,19.73
2022-07-28T18:19:27.050Z,19.70
2022-07-28T18:21:56.011Z,19.64
2022-07-28T18:24:24.766Z,19.63
2022-07-28T18:26:53.302Z,19.67
2022-07-28T18:29:22.385Z,19.72
2022-07-28T18:31:53.252Z,19.76
2022-07-28T18:34:24.843Z,19.77
2022-07-28T18:36:53.828Z,19.79
2022-07-28T18:39:22.630Z,19.84
2022-07-28T18:41:50.839Z,19.86
2022-07-28T18:44:20.226Z,19.90
2022-07-28T18:46:48.993Z,19.95
2022-07-28T18:49:20.118Z,19.99
2022-07-28T18:51:49.935Z,19.95
2022-07-28T18:54:27.637Z,19.91
2022-07-28T18:56:56.410Z,19.82
2022-07-28T18:59:24.785Z,19.60
2022-07-28T19:01:53.194Z,19.58
2022-07-28T19:04:31.451Z,19.59
2022-07-28T19:06:59.581Z,19.59
2022-07-28T19:09:27.913Z,19.57
2022-07-28T19:12:19.589Z,19.59
2022-07-28T19:14:47.876Z,19.61
2022-07-28T19:17:15.932Z,19.60
2022-07-28T19:19:45.770Z,19.61
2022-07-28T19:22:13.945Z,19.60
2022-07-28T19:24:42.143Z,19.56
2022-07-28T19:27:11.765Z,19.54
2022-07-28T19:29:40.058Z,19.50
2022-07-28T19:32:08.938Z,19.48
2022-07-28T19:34:37.245Z,19.41
2022-07-28T19:37:06.873Z,19.35
2022-07-28T19:39:35.575Z,19.32
2022-07-28T19:42:04.099Z,19.27
2022-07-28T19:44:32.454Z,19.26
2022-07-28T19:47:02.405Z,19.19
2022-07-28T19:49:52.108Z,19.06
2022-07-28T19:52:28.632Z,18.97
2022-07-28T19:55:05.959Z,18.88
2022-07-28T19:57:37.491Z,18.80
2022-07-28T20:00:10.201Z,18.68
2022-07-28T20:02:47.840Z,18.62
2022-07-28T20:05:22.193Z,18.60
2022-07-28T20:07:58.468Z,18.57
2022-07-28T20:10:28.084Z,18.51
2022-07-28T20:13:01.334Z,18.41
2022-07-28T20:15:36.373Z,18.38
2022-07-28T20:18:11.818Z,18.31
2022-07-28T20:20:46.115Z,18.27
2022-07-28T20:23:21.176Z,18.18
2022-07-28T20:25:54.249Z,18.13
2022-07-28T20:28:24.757Z,18.09
2022-07-28T20:30:53.723Z,18.02
2022-07-28T20:33:23.409Z,17.98
2022-07-28T20:35:53.469Z,17.89
2022-07-28T20:38:24.453Z,17.84
2022-07-28T20:40:53.213Z,17.80
2022-07-28T20:43:21.478Z,17.73
2022-07-28T20:45:50.013Z,17.73
2022-07-28T20:48:18.671Z,17.68
2022-07-28T20:50:47.455Z,17.59
2022-07-28T20:53:16.047Z,17.60
2022-07-28T20:55:45.790Z,17.57
2022-07-28T20:58:14.485Z,17.50
2022-07-28T21:00:43.328Z,17.50
2022-07-28T21:03:12.032Z,17.50
2022-07-28T21:05:40.960Z,17.49
2022-07-28T21:08:16.317Z,17.48
2022-07-28T21:10:48.097Z,17.49
2022-07-28T21:13:16.617Z,17.49
2022-07-28T21:15:45.222Z,17.50
2022-07-28T21:18:13.781Z,17.50
2022-07-28T21:20:42.201Z,17.50
2022-07-28T21:23:10.844Z,17.45
2022-07-28T21:25:39.089Z,17.44
2022-07-28T21:28:26.850Z,17.45
2022-07-28T21:30:55.545Z,17.43
2022-07-28T21:33:24.065Z,17.41
2022-07-28T21:35:52.471Z,17.40
2022-07-28T21:38:20.699Z,17.34
2022-07-28T21:40:48.947Z,17.30
2022-07-28T21:43:18.729Z,17.25
2022-07-28T21:45:48.008Z,17.20
2022-07-28T21:48:19.233Z,17.19
2022-07-28T21:50:47.434Z,17.17
2022-07-28T21:53:17.365Z,17.15
2022-07-28T21:55:46.296Z,17.14
2022-07-28T21:58:15.032Z,17.10
2022-07-28T22:00:45.469Z,17.12
2022-07-28T22:03:14.244Z,17.08
2022-07-28T22:05:43.223Z,17.05
2022-07-28T22:08:11.834Z,17.00
2022-07-28T22:10:40.204Z,17.01
2022-07-28T22:13:10.692Z,16.98
2022-07-28T22:15:39.364Z,16.87
2022-07-28T22:18:13.399Z,16.85
2022-07-28T22:20:44.633Z,16.82
2022-07-28T22:23:29.373Z,16.80
2022-07-28T22:25:58.645Z,16.78
2022-07-28T22:28:29.485Z,16.74
2022-07-28T22:31:08.944Z,16.71
2022-07-28T22:33:40.465Z,16.72
2022-07-28T22:36:09.233Z,16.65
2022-07-28T22:38:38.557Z,16.63
2022-07-28T22:41:07.045Z,16.58
2022-07-28T22:43:35.933Z,16.53
2022-07-28T22:46:04.314Z,16.53
2022-07-28T22:48:33.286Z,16.53
2022-07-28T22:51:03.494Z,16.52
2022-07-28T22:53:31.690Z,16.49
2022-07-28T22:58:47.095Z,16.47
2022-07-28T23:01:15.990Z,16.47
2022-07-28T23:03:45.050Z,16.45
2022-07-28T23:06:18.176Z,16.41
2022-07-28T23:08:46.440Z,16.38
2022-07-28T23:11:15.602Z,16.35
2022-07-28T23:13:44.229Z,16.33
2022-07-28T23:16:15.188Z,16.26
2022-07-28T23:18:44.170Z,16.24
2022-07-28T23:21:13.376Z,16.20
2022-07-28T23:23:43.168Z,16.22
2022-07-28T23:26:11.400Z,16.19
2022-07-28T23:28:39.823Z,16.18
2022-07-28T23:31:08.298Z,16.15
2022-07-28T23:33:55.469Z,16.19
2022-07-28T23:36:26.423Z,16.20
2022-07-28T23:38:57.488Z,16.21
2022-07-28T23:41:26.650Z,16.21
2022-07-28T23:43:54.796Z,16.20
2022-07-28T23:46:23.154Z,16.22
2022-07-28T23:48:52.342Z,16.18
2022-07-28T23:51:21.323Z,16.16
2022-07-28T23:53:54.365Z,16.14
2022-07-28T23:56:25.993Z,16.11
2022-07-28T23:58:54.282Z,16.09
